createdAt,value
2019-02-04T00:00:47.740Z,11.36
2019-02-04T00:03:20.172Z,11.37
2019-02-04T00:05:51.848Z,11.37
2019-02-04T00:08:23.660Z,11.31
2019-02-04T00:10:55.310Z,11.34
2019-02-04T00:13:26.879Z,11.31
2019-02-04T00:15:58.432Z,11.31
2019-02-04T00:18:30.092Z,11.27
2019-02-04T00:21:01.627Z,11.27
2019-02-04T00:23:33.269Z,11.31
2019-02-04T00:26:05.221Z,11.30
2019-02-04T00:28:36.808Z,11.25
2019-02-04T00:31:08.438Z,11.20
2019-02-04T00:33:40.380Z,11.22
2019-02-04T00:36:11.921Z,11.24
2019-02-04T00:38:43.629Z,11.25
2019-02-04T00:41:15.249Z,11.26
2019-02-04T00:43:46.920Z,11.23
2019-02-04T00:46:19.138Z,11.28
2019-02-04T00:48:50.659Z,11.30
2019-02-04T00:51:22.388Z,11.33
2019-02-04T00:53:53.901Z,11.26
2019-02-04T00:56:25.401Z,11.30
2019-02-04T00:58:57.198Z,11.23
2019-02-04T01:01:28.890Z,11.18
2019-02-04T01:04:00.492Z,11.17
2019-02-04T01:06:33.145Z,11.17
2019-02-04T01:09:06.139Z,11.14
2019-02-04T01:11:37.692Z,10.98
2019-02-04T01:14:09.940Z,10.98
2019-02-04T01:16:41.604Z,11.05
2019-02-04T01:19:13.358Z,11.02
2019-02-04T01:21:45.074Z,11.08
2019-02-04T01:24:16.636Z,11.10
2019-02-04T01:26:48.887Z,11.04
2019-02-04T01:29:20.420Z,10.97
2019-02-04T01:31:52.000Z,11.01
2019-02-04T01:34:24.848Z,11.04
2019-02-04T01:36:56.538Z,11.05
2019-02-04T01:39:28.106Z,10.98
2019-02-04T01:41:59.672Z,10.88
2019-02-04T01:44:31.308Z,10.85
2019-02-04T01:47:02.888Z,10.81
2019-02-04T01:49:34.441Z,10.84
2019-02-04T01:52:05.980Z,10.84
2019-02-04T01:54:37.511Z,10.77
2019-02-04T01:57:09.151Z,10.80
2019-02-04T01:59:40.890Z,10.79
2019-02-04T02:02:12.390Z,10.70
2019-02-04T02:04:43.891Z,10.76
2019-02-04T02:07:15.372Z,10.76
2019-02-04T02:09:46.976Z,10.76
2019-02-04T02:12:18.489Z,10.75
2019-02-04T02:14:52.461Z,10.76
2019-02-04T02:17:26.525Z,10.70
2019-02-04T02:19:57.377Z,10.71
2019-02-04T02:22:28.990Z,10.73
2019-02-04T02:25:00.769Z,10.74
2019-02-04T02:27:35.351Z,10.72
2019-02-04T02:30:08.330Z,10.73
2019-02-04T02:32:40.219Z,10.81
2019-02-04T02:35:11.743Z,10.80
2019-02-04T02:37:43.391Z,10.73
2019-02-04T02:40:27.471Z,10.76
2019-02-04T02:42:59.240Z,10.73
2019-02-04T02:45:30.740Z,10.76
2019-02-04T02:48:02.214Z,10.77
2019-02-04T02:50:33.814Z,10.78
2019-02-04T02:53:05.477Z,10.72
2019-02-04T02:55:37.120Z,10.75
2019-02-04T02:58:08.760Z,10.78
2019-02-04T03:00:40.396Z,10.83
2019-02-04T03:03:12.022Z,10.80
2019-02-04T03:05:43.560Z,10.68
2019-02-04T03:08:15.621Z,10.72
2019-02-04T03:10:47.058Z,10.69
2019-02-04T03:13:19.724Z,10.69
2019-02-04T03:15:51.354Z,10.66
2019-02-04T03:18:22.888Z,10.74
2019-02-04T03:20:54.515Z,10.64
2019-02-04T03:23:26.150Z,10.63
2019-02-04T03:25:57.622Z,10.63
2019-02-04T03:28:29.121Z,10.59
2019-02-04T03:31:00.741Z,10.62
2019-02-04T03:33:32.491Z,10.64
2019-02-04T03:36:04.004Z,10.66
2019-02-04T03:38:35.639Z,10.69
2019-02-04T03:41:07.896Z,10.72
2019-02-04T03:43:39.426Z,10.74
2019-02-04T03:46:11.051Z,10.70
2019-02-04T03:48:42.565Z,10.62
2019-02-04T03:51:14.090Z,10.71
2019-02-04T03:53:45.555Z,10.69
2019-02-04T03:56:17.110Z,10.66
2019-02-04T03:58:48.808Z,10.64
2019-02-04T04:01:20.401Z,10.65
2019-02-04T04:03:52.727Z,10.59
2019-02-04T04:06:24.316Z,10.52
2019-02-04T04:08:56.367Z,10.49
2019-02-04T04:11:27.989Z,10.55
2019-02-04T04:13:59.527Z,10.58
2019-02-04T04:16:32.267Z,10.58
2019-02-04T04:19:03.859Z,10.62
2019-02-04T04:21:35.469Z,10.64
2019-02-04T04:24:07.091Z,10.54
2019-02-04T04:26:38.771Z,10.54
2019-02-04T04:29:10.481Z,10.46
2019-02-04T04:31:43.302Z,10.45
2019-02-04T04:34:15.481Z,10.49
2019-02-04T04:36:46.952Z,10.48
2019-02-04T04:39:18.696Z,10.52
2019-02-04T04:41:50.210Z,10.54
2019-02-04T04:44:21.849Z,10.63
2019-02-04T04:46:53.360Z,10.62
2019-02-04T04:49:24.933Z,10.62
2019-02-04T04:51:56.512Z,10.66
2019-02-04T04:54:28.464Z,10.73
2019-02-04T04:57:00.421Z,10.73
2019-02-04T04:59:32.058Z,10.72
2019-02-04T05:02:03.541Z,10.79
2019-02-04T05:04:35.020Z,10.76
2019-02-04T05:07:06.632Z,10.79
2019-02-04T05:09:38.549Z,10.79
2019-02-04T05:12:10.238Z,10.74
2019-02-04T05:14:41.817Z,10.76
2019-02-04T05:17:13.452Z,10.75
2019-02-04T05:19:45.179Z,10.78
2019-02-04T05:22:18.301Z,10.73
2019-02-04T05:24:49.854Z,10.73
2019-02-04T05:27:21.482Z,10.71
2019-02-04T05:29:53.181Z,10.64
2019-02-04T05:32:24.838Z,10.63
2019-02-04T05:34:57.524Z,10.56
2019-02-04T05:37:29.424Z,10.61
2019-02-04T05:40:00.962Z,10.61
2019-02-04T05:42:34.523Z,10.57
2019-02-04T05:45:07.512Z,10.59
2019-02-04T05:47:39.121Z,10.67
2019-02-04T05:50:13.824Z,10.69
2019-02-04T05:52:45.441Z,10.69
2019-02-04T05:55:18.634Z,10.68
2019-02-04T05:57:50.422Z,10.74
2019-02-04T06:00:28.458Z,10.71
2019-02-04T06:03:00.038Z,10.79
2019-02-04T06:05:31.549Z,10.82
2019-02-04T06:08:03.538Z,10.85
2019-02-04T06:10:35.113Z,10.84
2019-02-04T06:13:06.831Z,10.86
2019-02-04T06:15:38.526Z,10.90
2019-02-04T06:18:10.330Z,10.88
2019-02-04T06:20:42.111Z,10.97
2019-02-04T06:23:13.594Z,11.04
2019-02-04T06:25:45.181Z,10.95
2019-02-04T06:28:16.841Z,10.98
2019-02-04T06:30:48.511Z,10.97
2019-02-04T06:33:20.285Z,11.00
2019-02-04T06:35:51.887Z,11.10
2019-02-04T06:38:23.676Z,11.14
2019-02-04T06:40:55.350Z,11.17
2019-02-04T06:43:26.950Z,11.29
2019-02-04T06:45:58.677Z,11.35
2019-02-04T06:48:30.334Z,11.40
2019-02-04T06:51:01.952Z,11.43
2019-02-04T06:53:33.522Z,11.53
2019-02-04T06:56:05.233Z,11.62
2019-02-04T06:58:36.759Z,11.80
2019-02-04T07:01:08.368Z,11.80
2019-02-04T07:03:40.592Z,11.96
2019-02-04T07:06:12.142Z,11.96
2019-02-04T07:08:43.693Z,12.02
2019-02-04T07:11:15.320Z,12.04
2019-02-04T07:13:46.766Z,12.17
2019-02-04T07:16:18.358Z,12.30
2019-02-04T07:18:50.000Z,12.41
2019-02-04T07:21:21.647Z,12.50
2019-02-04T07:23:53.191Z,12.57
2019-02-04T07:26:24.891Z,12.63
2019-02-04T07:28:56.365Z,12.63
2019-02-04T07:31:28.799Z,12.75
2019-02-04T07:34:00.242Z,12.85
2019-02-04T07:36:31.945Z,12.93
2019-02-04T07:39:05.121Z,12.96
2019-02-04T07:41:38.339Z,13.04
2019-02-04T07:44:09.912Z,13.12
2019-02-04T07:46:43.195Z,13.22
2019-02-04T07:49:14.838Z,13.25
2019-02-04T07:51:47.068Z,13.32
2019-02-04T07:54:18.600Z,13.39
2019-02-04T07:56:50.092Z,13.44
2019-02-04T07:59:22.047Z,13.52
2019-02-04T08:01:53.481Z,13.55
2019-02-04T08:04:25.122Z,13.65
2019-02-04T08:06:56.691Z,13.73
2019-02-04T08:09:28.269Z,13.79
2019-02-04T08:12:00.092Z,13.89
2019-02-04T08:14:32.990Z,13.95
2019-02-04T08:17:04.555Z,14.05
2019-02-04T08:19:46.385Z,14.14
2019-02-04T08:22:09.500Z,14.25
2019-02-04T08:24:41.090Z,14.44
2019-02-04T08:27:12.697Z,14.52
2019-02-04T08:29:44.330Z,14.60
2019-02-04T08:32:15.921Z,14.68
2019-02-04T08:34:47.521Z,14.74
2019-02-04T08:37:18.990Z,14.85
2019-02-04T08:39:51.408Z,14.86
2019-02-04T08:42:23.048Z,14.91
2019-02-04T08:44:55.121Z,14.91
2019-02-04T08:47:26.723Z,14.96
2019-02-04T08:49:59.967Z,15.00
2019-02-04T08:52:31.605Z,15.08
2019-02-04T08:55:03.261Z,15.12
2019-02-04T08:57:34.810Z,15.24
2019-02-04T09:00:07.469Z,15.31
2019-02-04T09:02:38.982Z,15.41
2019-02-04T09:05:12.322Z,15.62
2019-02-04T09:07:44.790Z,15.75
2019-02-04T09:10:22.839Z,15.83
2019-02-04T09:12:55.250Z,16.02
2019-02-04T09:15:27.036Z,16.20
2019-02-04T09:17:58.964Z,16.21
2019-02-04T09:20:32.030Z,16.30
2019-02-04T09:23:06.066Z,16.63
2019-02-04T09:25:37.306Z,16.85
2019-02-04T09:28:08.848Z,17.17
2019-02-04T09:30:40.566Z,17.35
2019-02-04T09:33:12.177Z,17.49
2019-02-04T09:35:43.808Z,17.61
2019-02-04T09:38:15.555Z,17.74
2019-02-04T09:40:47.798Z,17.83
2019-02-04T09:43:19.594Z,17.87
2019-02-04T09:45:51.202Z,17.95
2019-02-04T09:48:25.353Z,18.16
2019-02-04T09:50:58.886Z,18.28
2019-02-04T09:53:30.420Z,18.43
2019-02-04T09:56:02.835Z,18.66
2019-02-04T09:58:34.575Z,18.71
2019-02-04T10:01:06.688Z,18.83
2019-02-04T10:03:38.381Z,19.03
2019-02-04T10:06:10.042Z,19.34
2019-02-04T10:08:41.774Z,19.84
2019-02-04T10:11:13.322Z,20.02
2019-02-04T10:13:44.862Z,19.91
2019-02-04T10:16:16.408Z,19.65
2019-02-04T10:18:48.106Z,19.75
2019-02-04T10:21:19.698Z,19.97
2019-02-04T10:23:51.389Z,20.47
2019-02-04T10:26:23.243Z,20.89
2019-02-04T10:28:55.046Z,21.21
2019-02-04T10:31:26.822Z,21.58
2019-02-04T10:33:58.424Z,22.00
2019-02-04T10:36:31.279Z,22.40
2019-02-04T10:39:04.243Z,22.54
2019-02-04T10:41:35.905Z,22.53
2019-02-04T10:44:07.977Z,22.61
2019-02-04T10:46:39.601Z,22.21
2019-02-04T10:49:11.261Z,22.35
2019-02-04T10:51:42.952Z,22.42
2019-02-04T10:54:14.679Z,22.42
2019-02-04T10:56:46.447Z,22.04
2019-02-04T10:59:18.019Z,21.69
2019-02-04T11:01:49.824Z,21.50
2019-02-04T11:04:21.442Z,21.39
2019-02-04T11:06:53.180Z,21.32
2019-02-04T11:09:24.752Z,21.15
2019-02-04T11:11:56.391Z,21.12
2019-02-04T11:14:28.041Z,21.00
2019-02-04T11:16:59.735Z,21.20
2019-02-04T11:19:31.601Z,21.08
2019-02-04T11:22:04.831Z,21.08
2019-02-04T11:24:36.505Z,21.08
2019-02-04T11:27:08.220Z,21.09
2019-02-04T11:29:39.909Z,21.39
2019-02-04T11:32:10.675Z,20.85
2019-02-04T11:34:42.315Z,21.02
2019-02-04T11:37:13.850Z,20.48
2019-02-04T11:39:46.046Z,20.48
2019-02-04T11:42:17.684Z,20.30
2019-02-04T11:44:49.468Z,19.91
2019-02-04T11:47:21.141Z,20.02
2019-02-04T11:49:52.779Z,20.14
2019-02-04T11:52:24.855Z,19.64
2019-02-04T11:54:56.561Z,19.45
2019-02-04T11:57:28.123Z,19.48
2019-02-04T11:59:59.729Z,19.50
2019-02-04T12:02:34.500Z,19.59
2019-02-04T12:05:05.770Z,19.55
2019-02-04T12:07:37.463Z,19.21
2019-02-04T12:10:11.216Z,18.99
2019-02-04T12:12:42.873Z,18.85
2019-02-04T12:15:16.394Z,18.79
2019-02-04T12:17:48.054Z,18.70
2019-02-04T12:20:20.215Z,18.57
2019-02-04T12:22:51.867Z,18.62
2019-02-04T12:25:25.057Z,18.24
2019-02-04T12:27:57.331Z,18.11
2019-02-04T12:30:40.611Z,17.90
2019-02-04T12:33:14.066Z,17.65
2019-02-04T12:35:45.639Z,17.49
2019-02-04T12:38:19.083Z,17.31
2019-02-04T12:40:50.792Z,17.26
2019-02-04T12:43:22.325Z,17.20
2019-02-04T12:45:54.891Z,17.12
2019-02-04T12:48:26.427Z,17.18
2019-02-04T12:50:58.362Z,17.17
2019-02-04T12:53:29.961Z,17.27
2019-02-04T12:56:01.722Z,17.09
2019-02-04T12:58:33.333Z,17.06
2019-02-04T13:01:05.771Z,17.02
2019-02-04T13:03:37.338Z,16.96
2019-02-04T13:06:10.538Z,16.91
2019-02-04T13:08:42.562Z,16.85
2019-02-04T13:11:14.181Z,16.84
2019-02-04T13:13:49.517Z,16.84
2019-02-04T13:16:22.631Z,16.86
2019-02-04T13:18:54.136Z,16.91
2019-02-04T13:21:25.770Z,16.87
2019-02-04T13:23:57.560Z,16.86
2019-02-04T13:26:29.824Z,16.87
2019-02-04T13:29:01.655Z,16.71
2019-02-04T13:31:33.279Z,16.65
2019-02-04T13:34:05.512Z,16.39
2019-02-04T13:36:37.153Z,16.29
2019-02-04T13:39:10.581Z,16.33
2019-02-04T13:41:43.731Z,16.19
2019-02-04T13:44:15.314Z,16.12
2019-02-04T13:46:46.946Z,16.07
2019-02-04T13:49:18.633Z,15.85
2019-02-04T13:51:57.688Z,15.69
2019-02-04T13:54:23.708Z,15.64
2019-02-04T13:56:55.279Z,15.59
2019-02-04T13:59:27.981Z,15.59
2019-02-04T14:02:00.068Z,15.54
2019-02-04T14:04:31.721Z,15.35
2019-02-04T14:07:03.491Z,15.22
2019-02-04T14:09:35.101Z,15.21
2019-02-04T14:12:07.042Z,15.17
2019-02-04T14:14:44.641Z,15.15
2019-02-04T14:17:16.222Z,15.16
2019-02-04T14:19:47.864Z,15.11
2019-02-04T14:22:19.418Z,15.04
2019-02-04T14:24:51.341Z,14.96
2019-02-04T14:27:22.893Z,15.01
2019-02-04T14:29:54.380Z,14.93
2019-02-04T14:32:25.878Z,14.92
2019-02-04T14:34:57.479Z,14.81
2019-02-04T14:37:29.507Z,14.80
2019-02-04T14:40:01.333Z,14.80
2019-02-04T14:42:33.250Z,14.75
2019-02-04T14:45:17.881Z,14.73
2019-02-04T14:48:05.874Z,14.69
2019-02-04T14:51:01.880Z,14.75
2019-02-04T14:53:58.586Z,14.67
2019-02-04T14:57:04.870Z,14.59
2019-02-04T14:59:47.981Z,14.54
2019-02-04T15:02:49.293Z,14.61
2019-02-04T15:06:06.647Z,14.60
2019-02-04T15:09:09.142Z,14.62
2019-02-04T15:11:53.582Z,14.58
2019-02-04T15:14:40.835Z,14.56
2019-02-04T15:17:52.759Z,14.53
2019-02-04T15:20:45.843Z,14.50
2019-02-04T15:23:47.693Z,14.47
2019-02-04T15:26:53.670Z,14.38
2019-02-04T15:30:08.174Z,14.30
2019-02-04T15:33:15.488Z,14.24
2019-02-04T15:36:31.601Z,14.25
2019-02-04T15:39:14.490Z,14.21
2019-02-04T15:42:32.444Z,14.16
2019-02-04T15:45:13.554Z,14.10
2019-02-04T15:48:09.671Z,13.93
2019-02-04T15:51:07.029Z,13.91
2019-02-04T15:53:38.642Z,13.89
2019-02-04T15:56:10.748Z,13.81
2019-02-04T15:58:42.430Z,13.80
2019-02-04T16:01:14.114Z,13.77
2019-02-04T16:03:45.825Z,13.73
2019-02-04T16:06:17.533Z,13.68
2019-02-04T16:08:49.687Z,13.63
2019-02-04T16:11:21.412Z,13.52
2019-02-04T16:13:52.972Z,13.44
2019-02-04T16:16:25.597Z,13.45
2019-02-04T16:18:57.307Z,13.38
2019-02-04T16:21:29.293Z,13.34
2019-02-04T16:24:02.048Z,13.31
2019-02-04T16:26:33.831Z,13.29
2019-02-04T16:29:05.839Z,13.24
2019-02-04T16:31:38.402Z,13.19
2019-02-04T16:34:10.252Z,13.16
2019-02-04T16:36:41.899Z,13.12
2019-02-04T16:39:14.163Z,13.05
2019-02-04T16:41:45.718Z,13.01
2019-02-04T16:44:17.260Z,12.93
2019-02-04T16:46:48.991Z,12.90
2019-02-04T16:49:20.607Z,12.83
2019-02-04T16:51:52.059Z,12.81
2019-02-04T16:54:24.165Z,12.78
2019-02-04T16:56:55.743Z,12.75
2019-02-04T16:59:27.345Z,12.75
2019-02-04T17:01:58.896Z,12.68
2019-02-04T17:04:30.450Z,12.63
2019-02-04T17:07:02.064Z,12.55
2019-02-04T17:09:33.704Z,12.54
2019-02-04T17:12:05.324Z,12.49
2019-02-04T17:14:36.994Z,12.43
2019-02-04T17:17:08.769Z,12.42
2019-02-04T17:19:40.464Z,12.38
2019-02-04T17:22:12.272Z,12.34
2019-02-04T17:24:43.809Z,12.34
2019-02-04T17:27:15.556Z,12.30
2019-02-04T17:29:47.230Z,12.28
2019-02-04T17:32:18.849Z,12.21
2019-02-04T17:34:50.445Z,12.15
2019-02-04T17:37:22.132Z,12.12
2019-02-04T17:39:53.792Z,12.07
2019-02-04T17:42:25.390Z,12.02
2019-02-04T17:44:56.910Z,11.95
2019-02-04T17:47:28.827Z,11.92
2019-02-04T17:50:00.334Z,11.93
2019-02-04T17:52:32.031Z,11.92
2019-02-04T17:55:03.622Z,11.91
2019-02-04T17:57:35.656Z,11.81
2019-02-04T18:00:10.706Z,11.83
2019-02-04T18:02:44.437Z,11.82
2019-02-04T18:05:17.188Z,11.80
2019-02-04T18:07:49.312Z,11.77
2019-02-04T18:10:21.206Z,11.72
2019-02-04T18:12:53.137Z,11.69
2019-02-04T18:15:25.095Z,11.68
2019-02-04T18:17:56.759Z,11.51
2019-02-04T18:20:28.388Z,11.61
2019-02-04T18:23:00.093Z,11.61
2019-02-04T18:25:34.622Z,11.55
2019-02-04T18:28:08.601Z,11.56
2019-02-04T18:30:40.757Z,11.50
2019-02-04T18:33:12.991Z,11.50
2019-02-04T18:35:45.146Z,11.51
2019-02-04T18:38:19.681Z,11.49
2019-02-04T18:40:53.662Z,11.37
2019-02-04T18:43:27.263Z,11.41
2019-02-04T18:46:00.492Z,11.43
2019-02-04T18:48:34.094Z,11.38
2019-02-04T18:51:05.836Z,11.31
2019-02-04T18:53:37.620Z,11.26
2019-02-04T18:56:09.550Z,11.26
2019-02-04T18:58:41.241Z,11.20
2019-02-04T19:01:12.853Z,11.26
2019-02-04T19:03:44.557Z,11.26
2019-02-04T19:06:16.131Z,11.27
2019-02-04T19:08:48.000Z,11.28
2019-02-04T19:11:19.602Z,11.27
2019-02-04T19:13:51.253Z,11.27
2019-02-04T19:16:22.937Z,11.22
2019-02-04T19:18:54.587Z,11.22
2019-02-04T19:21:26.522Z,11.18
2019-02-04T19:24:09.033Z,11.18
2019-02-04T19:26:31.526Z,11.15
2019-02-04T19:29:03.162Z,11.23
2019-02-04T19:31:34.832Z,11.24
2019-02-04T19:34:06.843Z,11.16
2019-02-04T19:36:38.441Z,11.05
2019-02-04T19:39:11.388Z,11.01
2019-02-04T19:41:43.993Z,11.11
2019-02-04T19:44:15.717Z,11.04
2019-02-04T19:46:47.490Z,11.04
2019-02-04T19:49:19.182Z,11.01
2019-02-04T19:51:50.893Z,11.04
2019-02-04T19:54:22.400Z,10.91
2019-02-04T19:56:54.032Z,10.91
2019-02-04T19:59:25.876Z,10.87
2019-02-04T20:01:57.761Z,10.79
2019-02-04T20:04:29.327Z,10.84
2019-02-04T20:07:00.853Z,10.84
2019-02-04T20:09:32.509Z,10.89
2019-02-04T20:12:04.518Z,10.81
2019-02-04T20:14:36.261Z,10.81
2019-02-04T20:17:07.880Z,10.71
2019-02-04T20:19:39.583Z,10.61
2019-02-04T20:22:11.215Z,10.57
2019-02-04T20:24:44.455Z,10.51
2019-02-04T20:27:16.186Z,10.54
2019-02-04T20:29:49.320Z,10.57
2019-02-04T20:32:21.442Z,10.35
2019-02-04T20:34:55.323Z,10.29
2019-02-04T20:37:26.989Z,10.27
2019-02-04T20:40:01.528Z,10.20
2019-02-04T20:42:33.309Z,10.02
2019-02-04T20:45:06.595Z,9.98
2019-02-04T20:47:38.481Z,10.09
2019-02-04T20:50:16.730Z,9.93
2019-02-04T20:52:48.180Z,9.87
2019-02-04T20:55:19.706Z,9.90
2019-02-04T20:57:53.588Z,9.94
2019-02-04T21:00:27.167Z,9.90
2019-02-04T21:03:02.030Z,9.93
2019-02-04T21:05:34.170Z,9.92
2019-02-04T21:08:06.123Z,9.86
2019-02-04T21:10:38.327Z,9.83
2019-02-04T21:13:10.115Z,9.94
2019-02-04T21:15:41.796Z,10.04
2019-02-04T21:18:14.647Z,9.99
2019-02-04T21:20:47.761Z,9.74
2019-02-04T21:23:19.960Z,9.70
2019-02-04T21:25:51.790Z,9.75
2019-02-04T21:28:23.570Z,9.66
2019-02-04T21:30:57.067Z,9.69
2019-02-04T21:33:28.721Z,9.64
2019-02-04T21:36:00.400Z,9.47
2019-02-04T21:38:33.243Z,9.52
2019-02-04T21:41:04.928Z,9.38
2019-02-04T21:43:38.046Z,9.42
2019-02-04T21:46:09.647Z,9.25
2019-02-04T21:48:41.278Z,9.18
2019-02-04T21:51:15.896Z,9.21
2019-02-04T21:53:47.759Z,9.10
2019-02-04T21:56:19.501Z,9.11
2019-02-04T21:58:51.189Z,9.18
2019-02-04T22:01:22.912Z,9.01
2019-02-04T22:03:54.606Z,9.00
2019-02-04T22:06:27.981Z,8.91
2019-02-04T22:09:00.952Z,8.69
2019-02-04T22:11:33.726Z,8.57
2019-02-04T22:14:05.756Z,8.63
2019-02-04T22:16:37.157Z,8.56
2019-02-04T22:19:09.519Z,8.47
2019-02-04T22:21:41.708Z,8.46
2019-02-04T22:24:13.596Z,8.46
2019-02-04T22:26:45.260Z,8.43
2019-02-04T22:29:17.629Z,8.34
2019-02-04T22:31:49.737Z,8.26
2019-02-04T22:34:21.727Z,8.17
2019-02-04T22:36:54.701Z,8.25
2019-02-04T22:39:27.074Z,8.25
2019-02-04T22:41:59.720Z,8.21
2019-02-04T22:44:31.311Z,8.19
2019-02-04T22:47:03.325Z,8.41
2019-02-04T22:49:35.504Z,8.46
2019-02-04T22:52:07.241Z,8.29
2019-02-04T22:54:38.789Z,8.41
2019-02-04T22:57:12.079Z,8.49
2019-02-04T22:59:43.777Z,8.64
2019-02-04T23:02:16.230Z,8.43
2019-02-04T23:04:48.367Z,8.25
2019-02-04T23:07:19.979Z,8.33
2019-02-04T23:09:54.060Z,8.15
2019-02-04T23:12:26.056Z,8.02
2019-02-04T23:14:57.766Z,7.98
2019-02-04T23:17:29.430Z,7.81
2019-02-04T23:20:01.198Z,7.78
2019-02-04T23:22:32.865Z,7.77
2019-02-04T23:25:05.517Z,7.70
2019-02-04T23:27:39.039Z,7.60
2019-02-04T23:30:11.585Z,7.51
2019-02-04T23:32:43.219Z,7.53
2019-02-04T23:35:14.796Z,7.47
2019-02-04T23:37:46.474Z,7.37
2019-02-04T23:40:19.234Z,7.48
2019-02-04T23:42:50.903Z,7.56
2019-02-04T23:45:22.575Z,7.48
2019-02-04T23:47:54.253Z,7.50
2019-02-04T23:50:26.404Z,7.50
2019-02-04T23:52:57.879Z,7.42
2019-02-04T23:55:29.464Z,7.40
2019-02-04T23:58:00.940Z,7.25
